createdAt,value
2023-05-14T00:01:55.592Z,101381.25
2023-05-14T00:04:28.573Z,101378.66
2023-05-14T00:07:02.911Z,101369.75
2023-05-14T00:09:36.073Z,101369.97
2023-05-14T00:12:09.660Z,101369.50
2023-05-14T00:14:42.464Z,101373.03
2023-05-14T00:17:15.459Z,101364.06
2023-05-14T00:19:48.390Z,101365.97
2023-05-14T00:22:22.585Z,101363.78
2023-05-14T00:24:55.422Z,101358.50
2023-05-14T00:27:28.219Z,101359.09
2023-05-14T00:30:01.320Z,101353.72
2023-05-14T00:32:34.217Z,101354.31
2023-05-14T00:35:07.855Z,101352.34
2023-05-14T00:37:42.026Z,101353.59
2023-05-14T00:40:15.710Z,101346.75
2023-05-14T00:42:48.614Z,101341.56
2023-05-14T00:45:21.658Z,101339.03
2023-05-14T00:47:55.242Z,101338.09
2023-05-14T00:50:28.274Z,101327.50
2023-05-14T00:53:02.558Z,101330.47
2023-05-14T00:55:35.485Z,101326.97
2023-05-14T00:58:10.684Z,101327.69
2023-05-14T01:00:43.714Z,101321.63
2023-05-14T01:03:17.221Z,101329.47
2023-05-14T01:06:00.886Z,101326.03
2023-05-14T01:08:41.679Z,101325.75
2023-05-14T01:11:23.722Z,101326.69
2023-05-14T01:14:04.593Z,101324.38
2023-05-14T01:16:40.497Z,101321.69
2023-05-14T01:19:28.402Z,101312.59
2023-05-14T01:22:02.635Z,101317.75
2023-05-14T01:24:35.968Z,101315.78
2023-05-14T01:27:18.419Z,101315.63
2023-05-14T01:29:57.226Z,101318.75
2023-05-14T01:32:32.637Z,101318.94
2023-05-14T01:35:07.460Z,101312.47
2023-05-14T01:37:42.401Z,101324.38
2023-05-14T01:40:17.554Z,101318.16
2023-05-14T01:42:52.102Z,101323.06
2023-05-14T01:45:25.343Z,101319.91
2023-05-14T01:47:58.827Z,101330.13
2023-05-14T01:50:31.984Z,101324.09
2023-05-14T01:53:06.440Z,101327.13
2023-05-14T01:55:39.668Z,101326.75
2023-05-14T01:58:12.601Z,101319.13
2023-05-14T02:00:45.526Z,101315.97
2023-05-14T02:03:18.375Z,101312.44
2023-05-14T02:05:51.285Z,101307.31
2023-05-14T02:08:25.568Z,101307.44
2023-05-14T02:10:58.415Z,101313.53
2023-05-14T02:13:33.382Z,101310.25
2023-05-14T02:16:07.116Z,101310.88
2023-05-14T02:18:41.729Z,101300.28
2023-05-14T02:21:14.595Z,101304.91
2023-05-14T02:23:49.447Z,101301.75
2023-05-14T02:26:22.382Z,101313.41
2023-05-14T02:28:56.380Z,101312.19
2023-05-14T02:31:29.890Z,101315.06
2023-05-14T02:34:03.803Z,101319.44
2023-05-14T02:36:36.782Z,101321.41
2023-05-14T02:39:11.266Z,101318.47
2023-05-14T02:41:44.173Z,101316.19
2023-05-14T02:44:16.957Z,101309.97
2023-05-14T02:46:50.086Z,101310.22
2023-05-14T02:49:22.894Z,101309.25
2023-05-14T02:51:55.735Z,101308.03
2023-05-14T02:54:29.938Z,101306.66
2023-05-14T02:57:02.841Z,101307.78
2023-05-14T02:59:36.140Z,101309.84
2023-05-14T03:02:09.487Z,101302.38
2023-05-14T03:04:42.763Z,101306.47
2023-05-14T03:07:15.553Z,101301.97
2023-05-14T03:09:49.813Z,101306.91
2023-05-14T03:12:22.701Z,101308.09
2023-05-14T03:14:55.536Z,101306.50
2023-05-14T03:17:28.365Z,101305.88
2023-05-14T03:20:01.445Z,101305.44
2023-05-14T03:22:34.294Z,101299.44
2023-05-14T03:25:09.349Z,101299.78
2023-05-14T03:27:42.587Z,101297.69
2023-05-14T03:30:15.701Z,101295.34
2023-05-14T03:32:48.786Z,101296.44
2023-05-14T03:35:21.703Z,101285.38
2023-05-14T03:37:54.545Z,101299.81
2023-05-14T03:40:28.733Z,101294.31
2023-05-14T03:43:01.523Z,101290.84
2023-05-14T03:45:34.777Z,101292.88
2023-05-14T03:48:07.960Z,101288.28
2023-05-14T03:50:41.084Z,101284.16
2023-05-14T03:53:13.920Z,101280.31
2023-05-14T03:55:48.122Z,101287.56
2023-05-14T03:58:22.749Z,101277.09
2023-05-14T04:00:55.607Z,101277.69
2023-05-14T04:03:28.769Z,101282.00
2023-05-14T04:06:02.718Z,101280.50
2023-05-14T04:08:35.537Z,101280.00
2023-05-14T04:11:10.012Z,101273.94
2023-05-14T04:13:42.846Z,101272.75
2023-05-14T04:16:16.437Z,101277.13
2023-05-14T04:18:49.278Z,101265.97
2023-05-14T04:21:22.114Z,101274.97
2023-05-14T04:23:54.989Z,101277.84
2023-05-14T04:26:29.326Z,101279.56
2023-05-14T04:29:03.382Z,101275.44
2023-05-14T04:31:37.176Z,101284.88
2023-05-14T04:34:10.158Z,101275.81
2023-05-14T04:36:42.951Z,101277.38
2023-05-14T04:39:15.798Z,101278.75
2023-05-14T04:41:49.902Z,101273.75
2023-05-14T04:44:22.786Z,101268.19
2023-05-14T04:46:55.699Z,101265.13
2023-05-14T04:49:29.029Z,101272.31
2023-05-14T04:52:02.256Z,101276.69
2023-05-14T04:54:35.153Z,101270.50
2023-05-14T04:57:09.701Z,101267.94
2023-05-14T04:59:42.702Z,101266.72
2023-05-14T05:02:15.723Z,101270.03
2023-05-14T05:04:48.526Z,101270.53
2023-05-14T05:07:21.336Z,101274.03
2023-05-14T05:09:56.574Z,101274.28
2023-05-14T05:12:30.931Z,101274.75
2023-05-14T05:15:03.746Z,101280.59
2023-05-14T05:17:37.995Z,101286.19
2023-05-14T05:20:11.692Z,101275.50
2023-05-14T05:22:44.491Z,101281.69
2023-05-14T05:25:17.397Z,101281.91
2023-05-14T05:27:51.537Z,101282.50
2023-05-14T05:30:24.903Z,101285.53
2023-05-14T05:32:58.151Z,101283.50
2023-05-14T05:35:31.181Z,101282.75
2023-05-14T05:38:04.110Z,101284.78
2023-05-14T05:40:36.896Z,101293.38
2023-05-14T05:43:11.293Z,101291.56
2023-05-14T05:45:44.238Z,101292.38
2023-05-14T05:48:17.072Z,101292.31
2023-05-14T05:50:51.443Z,101286.94
2023-05-14T05:53:24.397Z,101286.50
2023-05-14T05:55:57.235Z,101287.88
2023-05-14T05:58:31.590Z,101296.13
2023-05-14T06:01:04.419Z,101297.91
2023-05-14T06:03:37.285Z,101292.34
2023-05-14T06:06:10.053Z,101301.63
2023-05-14T06:08:43.361Z,101296.28
2023-05-14T06:11:16.848Z,101300.16
2023-05-14T06:13:50.953Z,101303.59
2023-05-14T06:16:23.852Z,101301.00
2023-05-14T06:18:56.883Z,101299.22
2023-05-14T06:21:29.668Z,101310.09
2023-05-14T06:24:02.594Z,101307.06
2023-05-14T06:26:35.807Z,101297.25
2023-05-14T06:29:09.952Z,101308.16
2023-05-14T06:31:42.719Z,101303.38
2023-05-14T06:34:15.726Z,101306.06
2023-05-14T06:36:48.634Z,101305.00
2023-05-14T06:39:21.612Z,101305.28
2023-05-14T06:41:54.398Z,101311.25
2023-05-14T06:44:31.707Z,101304.50
2023-05-14T06:47:06.478Z,101311.28
2023-05-14T06:49:39.939Z,101303.66
2023-05-14T06:52:12.768Z,101305.19
2023-05-14T06:54:45.568Z,101298.72
2023-05-14T06:57:18.347Z,101291.44
2023-05-14T06:59:53.594Z,101303.91
2023-05-14T07:02:26.502Z,101290.25
2023-05-14T07:04:59.292Z,101289.97
2023-05-14T07:07:33.253Z,101293.38
2023-05-14T07:10:08.050Z,101292.63
2023-05-14T07:12:42.479Z,101286.22
2023-05-14T07:15:16.783Z,101289.97
2023-05-14T07:17:50.121Z,101298.00
2023-05-14T07:20:27.277Z,101297.16
2023-05-14T07:23:00.679Z,101294.16
2023-05-14T07:25:36.465Z,101280.47
2023-05-14T07:28:09.336Z,101283.97
2023-05-14T07:30:45.195Z,101295.88
2023-05-14T07:33:18.144Z,101276.97
2023-05-14T07:35:51.158Z,101278.47
2023-05-14T07:38:24.003Z,101274.03
2023-05-14T07:40:56.801Z,101277.00
2023-05-14T07:43:29.582Z,101272.13
2023-05-14T07:46:03.686Z,101275.25
2023-05-14T07:48:36.489Z,101270.44
2023-05-14T07:51:10.492Z,101269.44
2023-05-14T07:53:43.406Z,101271.84
2023-05-14T07:56:16.174Z,101269.59
2023-05-14T07:58:49.278Z,101265.63
2023-05-14T08:01:23.765Z,101267.50
2023-05-14T08:03:56.644Z,101264.66
2023-05-14T08:06:32.579Z,101264.34
2023-05-14T08:09:05.924Z,101271.41
2023-05-14T08:11:39.101Z,101267.03
2023-05-14T08:14:11.997Z,101258.56
2023-05-14T08:16:48.674Z,101270.69
2023-05-14T08:19:21.625Z,101264.16
2023-05-14T08:21:54.643Z,101261.75
2023-05-14T08:24:27.493Z,101261.72
2023-05-14T08:27:00.494Z,101262.28
2023-05-14T08:29:33.327Z,101268.22
2023-05-14T08:32:16.037Z,101263.06
2023-05-14T08:34:55.853Z,101258.94
2023-05-14T08:37:28.632Z,101250.63
2023-05-14T08:40:01.524Z,101253.75
2023-05-14T08:42:34.752Z,101256.31
2023-05-14T08:45:14.732Z,101254.63
2023-05-14T08:47:51.260Z,101242.78
2023-05-14T08:50:25.265Z,101253.94
2023-05-14T08:52:58.621Z,101243.06
2023-05-14T08:55:35.374Z,101227.53
2023-05-14T08:58:08.154Z,101220.00
2023-05-14T09:00:41.269Z,101236.38
2023-05-14T09:03:16.249Z,101229.44
2023-05-14T09:05:50.174Z,101239.91
2023-05-14T09:08:23.217Z,101235.03
2023-05-14T09:10:56.032Z,101226.00
2023-05-14T09:13:29.021Z,101233.97
2023-05-14T09:16:02.499Z,101239.41
2023-05-14T09:18:38.270Z,101238.97
2023-05-14T09:21:11.125Z,101225.66
2023-05-14T09:23:44.649Z,101230.66
2023-05-14T09:26:18.511Z,101232.47
2023-05-14T09:28:56.797Z,101225.44
2023-05-14T09:31:32.431Z,101219.50
2023-05-14T09:34:07.401Z,101204.25
2023-05-14T09:36:43.817Z,101218.72
2023-05-14T09:39:17.448Z,101219.09
2023-05-14T09:41:51.637Z,101217.56
2023-05-14T09:44:25.480Z,101210.13
2023-05-14T09:46:58.558Z,101215.09
2023-05-14T09:49:33.031Z,101207.53
2023-05-14T09:52:08.270Z,101198.22
2023-05-14T09:54:41.699Z,101191.69
2023-05-14T09:57:14.761Z,101205.25
2023-05-14T09:59:48.356Z,101192.91
2023-05-14T10:02:25.296Z,101187.72
2023-05-14T10:05:03.475Z,101202.78
2023-05-14T10:07:41.510Z,101199.72
2023-05-14T10:10:17.363Z,101191.97
2023-05-14T10:12:54.391Z,101192.91
2023-05-14T10:15:34.524Z,101197.25
2023-05-14T10:18:11.648Z,101180.22
2023-05-14T10:20:49.432Z,101185.09
2023-05-14T10:23:22.406Z,101180.63
2023-05-14T10:25:55.430Z,101180.94
2023-05-14T10:28:28.821Z,101167.81
2023-05-14T10:31:01.802Z,101172.41
2023-05-14T10:33:49.140Z,101162.00
2023-05-14T10:36:23.374Z,101170.63
2023-05-14T10:38:56.997Z,101167.59
2023-05-14T10:41:29.986Z,101169.16
2023-05-14T10:44:09.799Z,101170.03
2023-05-14T10:46:43.446Z,101164.59
2023-05-14T10:49:28.818Z,101152.13
2023-05-14T10:52:11.845Z,101159.78
2023-05-14T10:54:49.616Z,101149.97
2023-05-14T10:57:24.926Z,101157.59
2023-05-14T10:59:59.153Z,101147.56
2023-05-14T11:02:33.881Z,101145.25
2023-05-14T11:05:10.488Z,101144.41
2023-05-14T11:07:46.065Z,101148.84
2023-05-14T11:10:21.314Z,101142.25
2023-05-14T11:12:54.190Z,101143.50
2023-05-14T11:15:28.539Z,101141.06
2023-05-14T11:18:01.668Z,101136.88
2023-05-14T11:20:37.018Z,101134.81
2023-05-14T11:23:11.298Z,101132.28
2023-05-14T11:25:44.152Z,101128.63
2023-05-14T11:28:17.104Z,101124.50
2023-05-14T11:30:50.302Z,101128.97
2023-05-14T11:33:23.425Z,101130.47
2023-05-14T11:35:56.359Z,101114.06
2023-05-14T11:38:30.516Z,101121.28
2023-05-14T11:41:04.860Z,101104.16
2023-05-14T11:43:37.845Z,101112.41
2023-05-14T11:46:18.000Z,101109.66
2023-05-14T11:48:51.010Z,101102.13
2023-05-14T11:51:24.515Z,101097.91
2023-05-14T11:53:59.006Z,101096.78
2023-05-14T11:56:31.818Z,101100.28
2023-05-14T11:59:04.615Z,101099.47
2023-05-14T12:01:37.906Z,101097.31
2023-05-14T12:04:10.880Z,101094.28
2023-05-14T12:06:43.845Z,101097.66
2023-05-14T12:09:19.056Z,101102.56
2023-05-14T12:11:52.770Z,101092.03
2023-05-14T12:14:25.431Z,101097.78
2023-05-14T12:16:58.238Z,101095.00
2023-05-14T12:19:31.445Z,101091.25
2023-05-14T12:22:04.297Z,101077.81
2023-05-14T12:24:39.116Z,101085.88
2023-05-14T12:27:11.915Z,101091.44
2023-05-14T12:29:44.747Z,101087.50
2023-05-14T12:32:18.432Z,101073.28
2023-05-14T12:34:51.318Z,101076.38
2023-05-14T12:37:24.156Z,101069.16
2023-05-14T12:39:58.316Z,101066.03
2023-05-14T12:42:31.169Z,101073.28
2023-05-14T12:45:07.569Z,101078.38
2023-05-14T12:47:40.468Z,101066.66
2023-05-14T12:50:16.296Z,101060.69
2023-05-14T12:52:49.069Z,101056.19
2023-05-14T12:55:23.363Z,101059.13
2023-05-14T12:57:56.594Z,101056.41
2023-05-14T13:00:29.469Z,101053.78
2023-05-14T13:03:02.274Z,101044.66
2023-05-14T13:05:35.092Z,101048.97
2023-05-14T13:08:07.836Z,101040.53
2023-05-14T13:10:44.198Z,101033.28
2023-05-14T13:13:17.107Z,101030.78
2023-05-14T13:15:50.148Z,101030.47
2023-05-14T13:18:22.999Z,101033.09
2023-05-14T13:20:55.961Z,101020.69
2023-05-14T13:23:29.101Z,101013.97
2023-05-14T13:26:03.680Z,101020.34
2023-05-14T13:28:36.889Z,101014.50
2023-05-14T13:31:10.942Z,101020.91
2023-05-14T13:33:45.282Z,101011.31
2023-05-14T13:36:18.138Z,101011.03
2023-05-14T13:38:51.043Z,100995.25
2023-05-14T13:41:27.209Z,101006.88
2023-05-14T13:44:00.043Z,101007.88
2023-05-14T13:46:32.986Z,101003.25
2023-05-14T13:49:07.737Z,100997.81
2023-05-14T13:51:40.843Z,100997.25
2023-05-14T13:54:13.668Z,100994.75
2023-05-14T13:56:48.079Z,100995.72
2023-05-14T13:59:22.145Z,100993.84
2023-05-14T14:01:55.258Z,100991.91
2023-05-14T14:04:29.069Z,100994.28
2023-05-14T14:07:02.135Z,100984.91
2023-05-14T14:09:36.855Z,100981.38
2023-05-14T14:12:11.666Z,100988.34
2023-05-14T14:14:44.729Z,100980.16
2023-05-14T14:17:17.541Z,100979.53
2023-05-14T14:19:50.367Z,100980.19
2023-05-14T14:22:26.157Z,100968.53
2023-05-14T14:25:01.427Z,100966.81
2023-05-14T14:27:38.411Z,100971.75
2023-05-14T14:30:15.725Z,100961.06
2023-05-14T14:32:49.680Z,100968.56
2023-05-14T14:35:23.074Z,100964.59
2023-05-14T14:37:56.167Z,100956.06
2023-05-14T14:40:29.673Z,100953.53
2023-05-14T14:43:03.922Z,100951.91
2023-05-14T14:45:36.913Z,100950.03
2023-05-14T14:48:31.325Z,100954.97
2023-05-14T14:51:05.495Z,100949.66
2023-05-14T14:53:40.254Z,100940.19
2023-05-14T14:56:13.223Z,100944.72
2023-05-14T14:58:47.445Z,100943.06
2023-05-14T15:01:21.226Z,100932.31
2023-05-14T15:03:54.258Z,100942.78
2023-05-14T15:06:27.794Z,100942.78
2023-05-14T15:09:00.640Z,100941.41
2023-05-14T15:11:34.990Z,100936.13
2023-05-14T15:14:10.270Z,100935.97
2023-05-14T15:16:43.237Z,100940.59
2023-05-14T15:19:16.190Z,100933.28
2023-05-14T15:21:49.620Z,100943.28
2023-05-14T15:24:23.932Z,100939.69
2023-05-14T15:26:56.767Z,100938.22
2023-05-14T15:29:31.079Z,100931.56
2023-05-14T15:32:04.354Z,100926.66
2023-05-14T15:34:37.334Z,100931.16
2023-05-14T15:37:10.144Z,100924.81
2023-05-14T15:39:42.971Z,100933.38
2023-05-14T15:42:16.218Z,100928.56
2023-05-14T15:44:50.424Z,100923.94
2023-05-14T15:47:23.381Z,100923.81
2023-05-14T15:49:56.232Z,100922.78
2023-05-14T15:52:29.614Z,100920.56
2023-05-14T15:55:02.659Z,100922.56
2023-05-14T15:57:35.937Z,100926.94
2023-05-14T16:00:11.670Z,100917.41
2023-05-14T16:02:44.881Z,100916.84
2023-05-14T16:05:17.902Z,100919.63
2023-05-14T16:07:50.962Z,100907.91
2023-05-14T16:10:24.147Z,100915.50
2023-05-14T16:12:57.160Z,100914.81
2023-05-14T16:15:31.408Z,100920.50
2023-05-14T16:18:04.437Z,100913.44
2023-05-14T16:20:37.473Z,100920.16
2023-05-14T16:23:10.607Z,100904.78
2023-05-14T16:25:43.465Z,100919.34
2023-05-14T16:28:16.420Z,100916.84
2023-05-14T16:30:50.797Z,100907.13
2023-05-14T16:33:23.717Z,100920.28
2023-05-14T16:35:56.534Z,100915.91
2023-05-14T16:38:29.538Z,100909.78
2023-05-14T16:41:02.362Z,100909.50
2023-05-14T16:43:35.168Z,100910.09
2023-05-14T16:46:09.590Z,100903.13
2023-05-14T16:48:44.058Z,100905.25
2023-05-14T16:51:18.073Z,100905.56
2023-05-14T16:53:52.052Z,100908.06
2023-05-14T16:56:26.397Z,100916.19
2023-05-14T16:58:59.166Z,100913.19
2023-05-14T17:01:33.402Z,100908.13
2023-05-14T17:04:06.230Z,100922.25
2023-05-14T17:06:39.235Z,100912.56
2023-05-14T17:09:12.096Z,100911.28
2023-05-14T17:11:44.980Z,100902.06
2023-05-14T17:14:18.329Z,100896.97
2023-05-14T17:16:52.552Z,100906.59
2023-05-14T17:19:26.146Z,100899.78
2023-05-14T17:21:59.058Z,100903.25
2023-05-14T17:24:31.905Z,100903.88
2023-05-14T17:27:05.256Z,100901.97
2023-05-14T17:29:38.171Z,100908.09
2023-05-14T17:32:12.410Z,100905.59
2023-05-14T17:34:45.356Z,100909.00
2023-05-14T17:37:18.381Z,100905.72
2023-05-14T17:39:51.286Z,100910.47
2023-05-14T17:42:24.119Z,100904.03
2023-05-14T17:44:56.900Z,100906.78
2023-05-14T17:47:31.170Z,100916.09
2023-05-14T17:50:04.356Z,100912.81
2023-05-14T17:52:37.728Z,100917.91
2023-05-14T17:55:10.974Z,100914.59
2023-05-14T17:57:44.321Z,100918.28
2023-05-14T18:00:17.919Z,100914.84
2023-05-14T18:02:52.471Z,100927.97
2023-05-14T18:05:26.456Z,100922.31
2023-05-14T18:07:59.761Z,100917.75
2023-05-14T18:10:32.565Z,100927.97
2023-05-14T18:13:05.416Z,100934.88
2023-05-14T18:15:38.764Z,100932.69
2023-05-14T18:18:13.423Z,100937.13
2023-05-14T18:20:46.238Z,100936.31
2023-05-14T18:23:19.051Z,100939.50
2023-05-14T18:25:51.905Z,100945.22
2023-05-14T18:28:24.765Z,100932.06
2023-05-14T18:30:57.620Z,100939.78
2023-05-14T18:33:32.397Z,100945.25
2023-05-14T18:36:05.782Z,100942.59
2023-05-14T18:38:38.592Z,100935.88
2023-05-14T18:41:11.424Z,100943.28
2023-05-14T18:43:44.508Z,100933.44
2023-05-14T18:46:18.002Z,100941.38
2023-05-14T18:48:52.353Z,100947.28
2023-05-14T18:51:25.372Z,100938.03
2023-05-14T18:53:58.299Z,100943.06
2023-05-14T18:56:31.214Z,100940.13
2023-05-14T18:59:04.286Z,100946.75
2023-05-14T19:01:37.247Z,100940.28
2023-05-14T19:04:11.793Z,100934.66
2023-05-14T19:06:44.865Z,100939.94
2023-05-14T19:09:20.943Z,100937.28
2023-05-14T19:11:53.802Z,100943.63
2023-05-14T19:14:26.611Z,100947.47
2023-05-14T19:16:59.771Z,100952.91
2023-05-14T19:19:33.931Z,100949.41
2023-05-14T19:22:06.909Z,100948.50
2023-05-14T19:24:40.061Z,100944.81
2023-05-14T19:27:16.158Z,100952.06
2023-05-14T19:29:49.155Z,100951.34
2023-05-14T19:32:22.042Z,100952.22
2023-05-14T19:34:56.238Z,100957.50
2023-05-14T19:37:29.463Z,100963.88
2023-05-14T19:40:02.493Z,100966.19
2023-05-14T19:42:35.630Z,100959.75
2023-05-14T19:45:10.116Z,100955.25
2023-05-14T19:47:43.111Z,100958.63
2023-05-14T19:50:17.511Z,100958.53
2023-05-14T19:52:50.884Z,100960.31
2023-05-14T19:55:23.979Z,100966.78
2023-05-14T19:57:57.655Z,100964.31
2023-05-14T20:00:30.576Z,100968.34
2023-05-14T20:03:04.138Z,100964.50
2023-05-14T20:05:40.890Z,100969.59
2023-05-14T20:08:14.238Z,100960.28
2023-05-14T20:10:47.370Z,100961.13
2023-05-14T20:13:20.540Z,100954.28
2023-05-14T20:15:55.282Z,100960.38
2023-05-14T20:18:28.333Z,100962.91
2023-05-14T20:21:02.810Z,100953.56
2023-05-14T20:23:36.200Z,100959.75
2023-05-14T20:26:09.148Z,100948.84
2023-05-14T20:28:43.298Z,100944.25
2023-05-14T20:31:16.405Z,100944.78
2023-05-14T20:33:49.395Z,100943.16
2023-05-14T20:36:24.292Z,100939.81
2023-05-14T20:38:57.636Z,100937.66
2023-05-14T20:41:30.591Z,100944.69
2023-05-14T20:44:03.505Z,100939.50
2023-05-14T20:46:36.419Z,100940.44
2023-05-14T20:49:09.240Z,100937.06
2023-05-14T20:51:43.373Z,100942.91
2023-05-14T20:54:16.389Z,100942.94
2023-05-14T20:56:49.251Z,100937.97
2023-05-14T20:59:22.080Z,100936.63
2023-05-14T21:01:55.035Z,100936.88
2023-05-14T21:04:27.969Z,100937.97
2023-05-14T21:07:02.761Z,100929.47
2023-05-14T21:09:35.640Z,100927.34
2023-05-14T21:12:09.201Z,100930.94
2023-05-14T21:14:42.622Z,100927.84
2023-05-14T21:17:15.544Z,100930.09
2023-05-14T21:19:48.379Z,100934.81
2023-05-14T21:22:23.507Z,100934.06
2023-05-14T21:24:56.514Z,100926.47
2023-05-14T21:27:29.783Z,100927.91
2023-05-14T21:30:02.723Z,100931.44
2023-05-14T21:32:35.812Z,100920.69
2023-05-14T21:35:09.558Z,100918.16
2023-05-14T21:37:43.766Z,100914.28
2023-05-14T21:40:16.554Z,100913.34
2023-05-14T21:42:49.350Z,100914.84
2023-05-14T21:45:23.572Z,100909.81
2023-05-14T21:47:56.579Z,100918.63
2023-05-14T21:50:29.448Z,100913.03
2023-05-14T21:53:03.700Z,100905.72
2023-05-14T21:55:36.731Z,100907.38
2023-05-14T21:58:09.661Z,100910.78
2023-05-14T22:00:42.467Z,100905.72
2023-05-14T22:03:15.523Z,100904.91
2023-05-14T22:05:49.239Z,100901.72
2023-05-14T22:08:23.530Z,100905.09
2023-05-14T22:10:56.820Z,100910.88
2023-05-14T22:13:29.645Z,100911.09
2023-05-14T22:16:12.177Z,100907.75
2023-05-14T22:18:47.066Z,100911.13
2023-05-14T22:21:20.043Z,100904.38
2023-05-14T22:23:54.218Z,100911.31
2023-05-14T22:26:27.046Z,100910.16
2023-05-14T22:28:59.878Z,100924.44
2023-05-14T22:31:32.656Z,100915.41
2023-05-14T22:34:05.554Z,100915.75
2023-05-14T22:36:38.431Z,100919.13
2023-05-14T22:39:13.484Z,100912.03
2023-05-14T22:41:46.507Z,100923.94
2023-05-14T22:44:19.325Z,100912.19
2023-05-14T22:46:52.176Z,100900.53
2023-05-14T22:49:25.143Z,100894.28
2023-05-14T22:51:57.908Z,100886.69
2023-05-14T22:54:32.529Z,100887.66
2023-05-14T22:57:06.673Z,100894.19
2023-05-14T22:59:39.792Z,100884.91
2023-05-14T23:02:12.716Z,100882.94
2023-05-14T23:04:45.565Z,100881.69
2023-05-14T23:07:18.457Z,100873.38
2023-05-14T23:09:52.633Z,100884.22
2023-05-14T23:12:25.433Z,100873.13
2023-05-14T23:14:59.089Z,100875.50
2023-05-14T23:17:32.060Z,100878.88
2023-05-14T23:20:06.127Z,100879.84
2023-05-14T23:22:39.640Z,100875.34
2023-05-14T23:25:13.888Z,100879.75
2023-05-14T23:27:46.805Z,100876.91
2023-05-14T23:30:19.610Z,100865.34
2023-05-14T23:32:52.475Z,100868.06
2023-05-14T23:35:25.769Z,100869.34
2023-05-14T23:37:59.031Z,100866.06
2023-05-14T23:40:34.138Z,100863.09
2023-05-14T23:43:07.015Z,100876.13
2023-05-14T23:45:39.889Z,100867.25
2023-05-14T23:48:13.042Z,100861.56
2023-05-14T23:50:45.879Z,100860.19
2023-05-14T23:53:18.986Z,100854.59
2023-05-14T23:55:53.200Z,100848.56
2023-05-14T23:58:26.332Z,100847.34
